createdAt,value
2019-05-12T00:00:18.260Z,7.56
2019-05-12T00:01:18.530Z,7.54
2019-05-12T00:02:17.764Z,7.54
2019-05-12T00:03:15.703Z,7.56
2019-05-12T00:04:15.662Z,7.51
2019-05-12T00:05:18.176Z,7.58
2019-05-12T00:06:17.528Z,7.53
2019-05-12T00:07:17.893Z,7.54
2019-05-12T00:08:15.501Z,7.63
2019-05-12T00:09:15.474Z,7.58
2019-05-12T00:10:17.599Z,7.43
2019-05-12T00:11:15.373Z,7.48
2019-05-12T00:12:15.336Z,7.58
2019-05-12T00:13:15.293Z,7.56
2019-05-12T00:14:17.636Z,7.45
2019-05-12T00:15:15.212Z,7.51
2019-05-12T00:16:15.171Z,7.51
2019-05-12T00:17:15.126Z,7.47
2019-05-12T00:18:15.082Z,7.40
2019-05-12T00:19:15.045Z,7.36
2019-05-12T00:20:15.007Z,7.33
2019-05-12T00:21:14.961Z,7.45
2019-05-12T00:22:14.917Z,7.35
2019-05-12T00:23:26.587Z,7.33
2019-05-12T00:24:14.838Z,7.32
2019-05-12T00:25:14.797Z,7.35
2019-05-12T00:26:14.757Z,7.31
2019-05-12T00:27:14.716Z,7.35
2019-05-12T00:28:14.675Z,7.29
2019-05-12T00:29:14.637Z,7.25
2019-05-12T00:30:14.585Z,7.29
2019-05-12T00:31:14.544Z,7.23
2019-05-12T00:32:14.505Z,7.11
2019-05-12T00:33:14.468Z,7.18
2019-05-12T00:34:14.425Z,7.21
2019-05-12T00:35:14.379Z,7.21
2019-05-12T00:36:14.339Z,7.15
2019-05-12T00:37:14.300Z,7.18
2019-05-12T00:38:14.259Z,7.17
2019-05-12T00:39:14.218Z,7.14
2019-05-12T00:40:14.175Z,7.24
2019-05-12T00:41:14.132Z,7.15
2019-05-12T00:42:14.088Z,7.23
2019-05-12T00:43:14.046Z,7.31
2019-05-12T00:44:14.007Z,7.15
2019-05-12T00:45:13.969Z,7.29
2019-05-12T00:46:13.928Z,7.23
2019-05-12T00:47:13.886Z,7.10
2019-05-12T00:48:13.844Z,7.06
2019-05-12T00:49:13.800Z,7.06
2019-05-12T00:50:13.762Z,7.05
2019-05-12T00:51:13.720Z,7.05
2019-05-12T00:52:13.676Z,7.05
2019-05-12T00:53:13.633Z,7.05
2019-05-12T00:54:13.589Z,7.05
2019-05-12T00:55:13.576Z,6.99
2019-05-12T00:56:13.510Z,7.03
2019-05-12T00:57:13.471Z,6.97
2019-05-12T00:58:13.428Z,7.02
2019-05-12T00:59:13.386Z,7.02
2019-05-12T01:00:13.347Z,7.02
2019-05-12T01:01:13.308Z,6.97
2019-05-12T01:02:13.256Z,7.02
2019-05-12T01:03:13.216Z,7.02
2019-05-12T01:04:13.175Z,7.10
2019-05-12T01:05:13.135Z,7.11
2019-05-12T01:06:13.095Z,7.03
2019-05-12T01:07:13.048Z,7.02
2019-05-12T01:08:13.011Z,6.99
2019-05-12T01:09:12.969Z,6.95
2019-05-12T01:10:12.943Z,6.87
2019-05-12T01:11:12.887Z,7.00
2019-05-12T01:12:12.845Z,6.99
2019-05-12T01:13:12.800Z,6.87
2019-05-12T01:14:12.755Z,6.87
2019-05-12T01:15:12.717Z,6.81
2019-05-12T01:16:12.677Z,6.85
2019-05-12T01:17:12.636Z,6.81
2019-05-12T01:18:12.595Z,6.84
2019-05-12T01:19:12.553Z,6.87
2019-05-12T01:20:12.509Z,6.78
2019-05-12T01:21:12.467Z,6.82
2019-05-12T01:22:12.422Z,6.85
2019-05-12T01:23:12.384Z,6.81
2019-05-12T01:24:12.349Z,6.85
2019-05-12T01:25:12.300Z,6.84
2019-05-12T01:26:12.256Z,6.75
2019-05-12T01:27:12.216Z,6.81
2019-05-12T01:28:12.175Z,6.79
2019-05-12T01:29:12.139Z,6.82
2019-05-12T01:30:12.094Z,6.82
2019-05-12T01:31:12.050Z,6.87
2019-05-12T01:32:12.007Z,6.89
2019-05-12T01:33:11.968Z,6.88
2019-05-12T01:34:11.926Z,6.95
2019-05-12T01:35:11.888Z,6.97
2019-05-12T01:36:11.843Z,6.92
2019-05-12T01:37:11.799Z,6.82
2019-05-12T01:38:11.758Z,6.85
2019-05-12T01:39:11.720Z,6.89
2019-05-12T01:40:11.675Z,6.79
2019-05-12T01:41:11.632Z,6.85
2019-05-12T01:42:11.588Z,6.77
2019-05-12T01:43:11.546Z,6.79
2019-05-12T01:44:11.507Z,6.87
2019-05-12T01:45:11.467Z,6.81
2019-05-12T01:46:11.426Z,6.88
2019-05-12T01:47:11.385Z,6.70
2019-05-12T01:48:11.342Z,6.72
2019-05-12T01:49:11.299Z,6.74
2019-05-12T01:50:11.259Z,6.54
2019-05-12T01:51:11.212Z,6.56
2019-05-12T01:52:11.173Z,6.72
2019-05-12T01:53:11.133Z,6.67
2019-05-12T01:54:14.860Z,6.64
2019-05-12T01:55:11.050Z,6.64
2019-05-12T01:56:11.007Z,6.72
2019-05-12T01:57:10.966Z,6.67
2019-05-12T01:58:10.929Z,6.64
2019-05-12T01:59:10.884Z,6.60
2019-05-12T02:00:10.842Z,6.51
2019-05-12T02:01:10.797Z,6.56
2019-05-12T02:02:10.752Z,6.54
2019-05-12T02:03:10.714Z,6.39
2019-05-12T02:04:10.694Z,6.46
2019-05-12T02:05:10.632Z,6.45
2019-05-12T02:06:10.591Z,6.39
2019-05-12T02:07:10.550Z,6.41
2019-05-12T02:08:10.511Z,6.41
2019-05-12T02:09:10.463Z,6.46
2019-05-12T02:10:10.420Z,6.42
2019-05-12T02:11:10.383Z,6.39
2019-05-12T02:12:10.338Z,6.30
2019-05-12T02:13:10.296Z,6.30
2019-05-12T02:14:10.252Z,6.39
2019-05-12T02:15:10.210Z,6.38
2019-05-12T02:16:10.171Z,6.44
2019-05-12T02:17:10.133Z,6.41
2019-05-12T02:18:10.089Z,6.49
2019-05-12T02:19:10.049Z,6.46
2019-05-12T02:20:10.005Z,6.48
2019-05-12T02:21:09.961Z,6.63
2019-05-12T02:22:09.916Z,6.56
2019-05-12T02:23:09.891Z,6.62
2019-05-12T02:24:23.458Z,6.52
2019-05-12T02:25:09.795Z,6.57
2019-05-12T02:26:09.757Z,6.57
2019-05-12T02:27:09.707Z,6.57
2019-05-12T02:28:09.732Z,6.64
2019-05-12T02:29:09.627Z,6.69
2019-05-12T02:30:10.266Z,6.46
2019-05-12T02:31:09.750Z,6.64
2019-05-12T02:32:09.503Z,6.42
2019-05-12T02:33:09.459Z,6.56
2019-05-12T02:34:09.442Z,6.48
2019-05-12T02:35:09.373Z,6.59
2019-05-12T02:36:09.333Z,6.39
2019-05-12T02:37:09.295Z,6.49
2019-05-12T02:38:09.254Z,6.45
2019-05-12T02:39:09.211Z,6.41
2019-05-12T02:40:09.168Z,6.36
2019-05-12T02:41:09.122Z,6.46
2019-05-12T02:42:09.080Z,6.33
2019-05-12T02:43:09.042Z,6.38
2019-05-12T02:44:09.003Z,6.44
2019-05-12T02:45:08.998Z,6.33
2019-05-12T02:46:08.919Z,6.41
2019-05-12T02:47:08.874Z,6.38
2019-05-12T02:48:08.833Z,6.41
2019-05-12T02:49:08.790Z,6.31
2019-05-12T02:50:08.750Z,6.35
2019-05-12T02:51:08.708Z,6.24
2019-05-12T02:52:08.664Z,6.35
2019-05-12T02:53:08.634Z,6.33
2019-05-12T02:54:08.575Z,6.38
2019-05-12T02:55:08.541Z,6.33
2019-05-12T02:56:08.495Z,6.39
2019-05-12T02:57:08.454Z,6.27
2019-05-12T02:58:08.423Z,6.45
2019-05-12T02:59:08.366Z,6.45
2019-05-12T03:00:08.330Z,6.44
2019-05-12T03:01:08.301Z,6.38
2019-05-12T03:02:08.253Z,6.35
2019-05-12T03:03:08.250Z,6.30
2019-05-12T03:04:08.164Z,6.35
2019-05-12T03:05:08.123Z,6.36
2019-05-12T03:06:08.073Z,6.42
2019-05-12T03:07:08.032Z,6.42
2019-05-12T03:08:07.995Z,6.38
2019-05-12T03:09:07.951Z,6.49
2019-05-12T03:10:07.910Z,6.38
2019-05-12T03:11:07.871Z,6.41
2019-05-12T03:12:07.825Z,6.33
2019-05-12T03:13:07.782Z,6.30
2019-05-12T03:14:07.739Z,6.36
2019-05-12T03:15:07.701Z,6.30
2019-05-12T03:16:07.665Z,6.26
2019-05-12T03:17:07.638Z,6.33
2019-05-12T03:18:07.687Z,6.28
2019-05-12T03:19:07.529Z,6.19
2019-05-12T03:20:07.488Z,6.31
2019-05-12T03:21:07.448Z,6.27
2019-05-12T03:22:07.408Z,6.22
2019-05-12T03:37:17.857Z,6.12
2019-05-12T03:38:14.762Z,6.14
2019-05-12T03:39:15.014Z,6.20
2019-05-12T03:40:14.498Z,6.19
2019-05-12T03:41:14.662Z,6.26
2019-05-12T03:42:14.537Z,6.35
2019-05-12T03:43:14.524Z,6.46
2019-05-12T03:44:15.109Z,6.39
2019-05-12T03:45:14.919Z,6.35
2019-05-12T03:46:15.202Z,6.28
2019-05-12T03:47:14.487Z,6.27
2019-05-12T03:48:14.904Z,6.33
2019-05-12T03:49:15.331Z,6.33
2019-05-12T03:50:14.774Z,6.33
2019-05-12T03:51:15.496Z,6.36
2019-05-12T03:52:15.285Z,6.31
2019-05-12T03:53:15.667Z,6.36
2019-05-12T03:54:15.235Z,6.28
2019-05-12T03:55:30.320Z,6.27
2019-05-12T03:56:15.113Z,6.30
2019-05-12T03:57:15.013Z,6.35
2019-05-12T03:58:15.346Z,6.33
2019-05-12T03:59:15.022Z,6.41
2019-05-12T04:00:15.765Z,6.38
2019-05-12T04:01:15.024Z,6.41
2019-05-12T04:02:15.069Z,6.45
2019-05-12T04:03:15.381Z,6.48
2019-05-12T04:04:15.325Z,6.54
2019-05-12T04:05:15.540Z,6.66
2019-05-12T04:06:15.349Z,6.49
2019-05-12T04:07:14.988Z,6.45
2019-05-12T04:08:15.357Z,6.41
2019-05-12T04:09:15.422Z,6.41
2019-05-12T04:10:14.777Z,6.52
2019-05-12T04:11:14.587Z,6.59
2019-05-12T04:12:14.843Z,6.69
2019-05-12T04:13:15.091Z,6.54
2019-05-12T04:14:14.846Z,6.52
2019-05-12T04:15:15.206Z,6.56
2019-05-12T04:16:12.299Z,6.42
2019-05-12T04:17:14.778Z,6.42
2019-05-12T04:18:15.497Z,6.41
2019-05-12T04:19:14.632Z,6.44
2019-05-12T04:20:14.922Z,6.42
2019-05-12T04:21:15.268Z,6.45
2019-05-12T04:22:15.148Z,6.41
2019-05-12T04:23:14.966Z,6.48
2019-05-12T04:24:14.311Z,6.35
2019-05-12T04:25:14.570Z,6.35
2019-05-12T04:26:16.493Z,6.31
2019-05-12T04:27:14.818Z,6.35
2019-05-12T04:28:14.742Z,6.30
2019-05-12T04:29:15.147Z,6.30
2019-05-12T04:30:14.428Z,6.44
2019-05-12T04:31:11.672Z,6.39
2019-05-12T04:32:14.174Z,6.46
2019-05-12T04:33:15.084Z,6.42
2019-05-12T04:34:14.709Z,6.59
2019-05-12T04:35:14.533Z,6.64
2019-05-12T04:36:14.577Z,6.74
2019-05-12T04:37:14.556Z,6.70
2019-05-12T04:38:14.740Z,6.75
2019-05-12T04:39:14.430Z,6.81
2019-05-12T04:40:14.690Z,6.79
2019-05-12T04:41:14.389Z,6.85
2019-05-12T04:42:14.692Z,6.87
2019-05-12T04:43:14.296Z,6.84
2019-05-12T04:44:14.840Z,6.92
2019-05-12T04:45:11.088Z,6.81
2019-05-12T04:46:14.065Z,6.74
2019-05-12T04:47:11.004Z,6.67
2019-05-12T04:48:10.957Z,6.72
2019-05-12T04:49:10.916Z,6.75
2019-05-12T04:50:10.886Z,6.75
2019-05-12T04:51:10.836Z,6.74
2019-05-12T04:52:10.793Z,6.66
2019-05-12T04:53:10.748Z,6.67
2019-05-12T04:54:10.708Z,6.84
2019-05-12T04:55:10.662Z,6.87
2019-05-12T04:56:16.786Z,6.79
2019-05-12T04:57:10.583Z,6.92
2019-05-12T04:58:10.579Z,6.96
2019-05-12T04:59:10.502Z,6.99
2019-05-12T05:00:10.458Z,7.03
2019-05-12T05:01:10.416Z,6.96
2019-05-12T05:02:10.374Z,7.03
2019-05-12T05:03:10.332Z,6.96
2019-05-12T05:04:10.293Z,6.84
2019-05-12T05:05:10.250Z,6.84
2019-05-12T05:06:10.207Z,6.81
2019-05-12T05:07:10.162Z,6.72
2019-05-12T05:08:10.126Z,6.74
2019-05-12T05:09:10.083Z,6.84
2019-05-12T05:10:10.041Z,6.75
2019-05-12T05:11:10.012Z,6.87
2019-05-12T05:12:09.956Z,6.82
2019-05-12T05:13:09.914Z,6.88
2019-05-12T05:14:09.875Z,6.97
2019-05-12T05:15:09.831Z,6.97
2019-05-12T05:16:09.793Z,6.89
2019-05-12T05:18:43.803Z,6.93
2019-05-12T05:19:43.995Z,6.84
2019-05-12T05:20:43.589Z,6.87
2019-05-12T05:21:43.649Z,6.92
2019-05-12T05:22:43.800Z,7.02
2019-05-12T05:23:44.075Z,7.07
2019-05-12T05:24:41.559Z,7.17
2019-05-12T05:25:43.391Z,7.13
2019-05-12T05:26:43.443Z,7.13
2019-05-12T05:27:41.437Z,7.18
2019-05-12T05:28:43.471Z,7.24
2019-05-12T05:29:43.676Z,7.14
2019-05-12T05:30:41.306Z,7.21
2019-05-12T05:31:41.264Z,7.18
2019-05-12T05:32:41.223Z,7.14
2019-05-12T05:33:43.299Z,7.14
2019-05-12T05:34:46.260Z,7.15
2019-05-12T05:35:41.106Z,7.29
2019-05-12T05:36:43.198Z,7.29
2019-05-12T05:37:43.557Z,7.29
2019-05-12T05:38:43.520Z,7.33
2019-05-12T05:39:47.565Z,7.36
2019-05-12T05:40:40.890Z,7.32
2019-05-12T05:41:46.496Z,7.33
2019-05-12T05:42:40.815Z,7.42
2019-05-12T05:43:40.765Z,7.33
2019-05-12T05:44:40.726Z,7.38
2019-05-12T05:45:40.686Z,7.39
2019-05-12T05:46:47.746Z,7.50
2019-05-12T05:47:40.604Z,7.36
2019-05-12T05:48:40.560Z,7.38
2019-05-12T05:49:40.528Z,7.33
2019-05-12T05:50:40.472Z,7.31
2019-05-12T05:51:46.718Z,7.29
2019-05-12T05:52:40.395Z,7.38
2019-05-12T05:53:40.352Z,7.35
2019-05-12T05:54:40.312Z,7.43
2019-05-12T05:55:40.273Z,7.39
2019-05-12T05:56:43.216Z,7.48
2019-05-12T05:57:40.186Z,7.51
2019-05-12T05:58:45.467Z,7.61
2019-05-12T05:59:40.110Z,7.48
2019-05-12T06:00:40.062Z,7.50
2019-05-12T06:01:45.163Z,7.63
2019-05-12T06:02:40.653Z,7.58
2019-05-12T06:03:39.934Z,7.60
2019-05-12T06:04:44.429Z,7.60
2019-05-12T06:05:39.854Z,7.66
2019-05-12T06:06:42.722Z,7.67
2019-05-12T06:07:39.775Z,7.69
2019-05-12T06:08:39.732Z,7.76
2019-05-12T06:09:39.685Z,7.75
2019-05-12T06:10:40.611Z,7.80
2019-05-12T06:11:39.607Z,7.82
2019-05-12T06:12:40.361Z,7.82
2019-05-12T06:13:40.274Z,7.94
2019-05-12T06:14:40.942Z,7.90
2019-05-12T06:15:40.909Z,8.05
2019-05-12T06:16:39.400Z,8.05
2019-05-12T06:17:39.363Z,8.03
2019-05-12T06:18:39.317Z,7.98
2019-05-12T06:19:39.276Z,8.08
2019-05-12T06:20:39.235Z,8.08
2019-05-12T06:21:39.190Z,8.12
2019-05-12T06:22:39.153Z,8.03
2019-05-12T06:23:39.352Z,7.93
2019-05-12T06:24:39.092Z,8.06
2019-05-12T06:25:49.349Z,8.03
2019-05-12T06:26:52.891Z,8.19
2019-05-12T06:27:38.946Z,8.19
2019-05-12T06:28:41.166Z,8.24
2019-05-12T06:29:38.860Z,8.20
2019-05-12T06:30:44.472Z,8.30
2019-05-12T06:31:38.782Z,8.31
2019-05-12T06:32:41.163Z,8.34
2019-05-12T06:33:38.695Z,8.31
2019-05-12T06:34:38.658Z,8.34
2019-05-12T06:35:42.263Z,8.37
2019-05-12T06:36:38.571Z,8.24
2019-05-12T06:37:38.536Z,8.28
2019-05-12T06:38:40.478Z,8.44
2019-05-12T06:39:38.455Z,8.42
2019-05-12T06:40:40.993Z,8.38
2019-05-12T06:41:38.373Z,8.42
2019-05-12T06:42:38.328Z,8.52
2019-05-12T06:43:39.610Z,8.61
2019-05-12T06:44:38.244Z,8.63
2019-05-12T06:45:42.499Z,8.69
2019-05-12T06:46:38.195Z,8.63
2019-05-12T06:47:39.393Z,8.67
2019-05-12T06:48:41.861Z,8.61
2019-05-12T06:49:38.045Z,8.63
2019-05-12T06:50:39.351Z,8.64
2019-05-12T06:51:37.961Z,8.61
2019-05-12T06:52:38.733Z,8.67
2019-05-12T06:53:37.875Z,8.63
2019-05-12T06:54:44.566Z,8.61
2019-05-12T06:55:39.299Z,8.60
2019-05-12T06:56:37.751Z,8.69
2019-05-12T06:57:40.016Z,8.67
2019-05-12T06:58:37.676Z,8.70
2019-05-12T06:59:41.954Z,8.58
2019-05-12T07:00:37.593Z,8.60
2019-05-12T07:01:37.549Z,8.53
2019-05-12T07:02:49.195Z,8.67
2019-05-12T07:03:37.485Z,8.66
2019-05-12T07:04:41.200Z,8.70
2019-05-12T07:05:38.562Z,8.74
2019-05-12T07:06:37.348Z,8.79
2019-05-12T07:07:41.863Z,8.76
2019-05-12T07:08:38.543Z,8.84
2019-05-12T07:09:50.085Z,8.88
2019-05-12T07:10:43.575Z,8.92
2019-05-12T07:11:44.961Z,8.89
2019-05-12T07:12:54.091Z,8.88
2019-05-12T07:13:37.059Z,8.91
2019-05-12T07:14:37.019Z,8.84
2019-05-12T07:15:40.412Z,8.87
2019-05-12T07:16:36.936Z,9.00
2019-05-12T07:17:43.932Z,9.06
2019-05-12T07:18:37.184Z,8.89
2019-05-12T07:19:36.818Z,8.89
2019-05-12T07:20:38.918Z,9.10
2019-05-12T07:21:36.740Z,9.06
2019-05-12T07:22:43.723Z,9.18
2019-05-12T07:23:36.658Z,9.14
2019-05-12T07:24:40.852Z,9.18
2019-05-12T07:25:36.948Z,9.16
2019-05-12T07:26:47.949Z,9.03
2019-05-12T07:28:40.442Z,9.06
2019-05-12T07:29:40.506Z,9.06
2019-05-12T07:32:44.918Z,9.10
2019-05-12T07:33:41.401Z,9.04
2019-05-12T07:34:43.765Z,9.16
2019-05-12T07:36:28.384Z,9.34
2019-05-12T07:37:29.982Z,9.40
2019-05-12T07:38:27.855Z,9.56
2019-05-12T07:39:44.530Z,9.65
2019-05-12T07:41:50.394Z,9.97
2019-05-12T07:42:38.919Z,9.99
2019-05-12T07:43:33.729Z,9.95
2019-05-12T07:44:39.772Z,10.05
2019-05-12T07:45:33.538Z,10.13
2019-05-12T07:46:34.055Z,9.98
2019-05-12T07:47:33.149Z,10.07
2019-05-12T07:48:33.357Z,10.10
2019-05-12T07:49:36.723Z,9.92
2019-05-12T07:50:31.489Z,9.99
2019-05-12T07:51:38.399Z,9.97
2019-05-12T07:52:33.627Z,9.94
2019-05-12T07:53:33.733Z,9.95
2019-05-12T07:54:35.352Z,9.79
2019-05-12T07:55:33.779Z,9.55
2019-05-12T07:56:35.241Z,9.56
2019-05-12T07:57:34.499Z,9.58
2019-05-12T07:58:33.190Z,9.77
2019-05-12T07:59:38.982Z,9.91
2019-05-12T08:00:33.756Z,10.07
2019-05-12T08:01:35.761Z,10.07
2019-05-12T08:02:31.917Z,10.15
2019-05-12T08:03:30.963Z,10.09
2019-05-12T08:04:31.594Z,10.09
2019-05-12T08:05:33.501Z,10.10
2019-05-12T08:06:32.635Z,10.23
2019-05-12T08:07:30.809Z,10.48
2019-05-12T08:08:30.761Z,10.38
2019-05-12T08:09:32.240Z,10.49
2019-05-12T08:10:30.685Z,10.35
2019-05-12T08:11:34.661Z,10.16
2019-05-12T08:12:30.611Z,9.98
2019-05-12T08:13:31.194Z,9.98
2019-05-12T08:14:30.529Z,9.77
2019-05-12T08:15:30.486Z,9.83
2019-05-12T08:16:33.624Z,9.87
2019-05-12T08:17:30.404Z,9.68
2019-05-12T08:18:35.666Z,9.32
2019-05-12T08:19:30.331Z,9.41
2019-05-12T08:20:30.292Z,9.34
2019-05-12T08:21:34.930Z,9.34
2019-05-12T08:22:30.208Z,9.47
2019-05-12T08:23:30.168Z,9.46
2019-05-12T08:24:36.952Z,9.44
2019-05-12T08:25:30.096Z,9.40
2019-05-12T08:26:30.051Z,9.29
2019-05-12T08:27:30.007Z,9.36
2019-05-12T08:28:35.869Z,9.41
2019-05-12T08:29:29.926Z,9.47
2019-05-12T08:30:29.888Z,9.72
2019-05-12T08:31:33.155Z,9.66
2019-05-12T08:32:29.813Z,9.66
2019-05-12T08:33:29.772Z,9.64
2019-05-12T08:34:29.730Z,9.73
2019-05-12T08:35:34.720Z,9.68
2019-05-12T08:36:29.649Z,9.72
2019-05-12T08:37:29.615Z,9.77
2019-05-12T08:38:29.572Z,9.72
2019-05-12T08:39:29.528Z,9.86
2019-05-12T08:40:29.487Z,9.79
2019-05-12T08:41:29.447Z,9.79
2019-05-12T08:42:29.409Z,9.66
2019-05-12T08:43:29.371Z,9.68
2019-05-12T08:44:33.491Z,9.80
2019-05-12T08:45:33.959Z,9.69
2019-05-12T08:46:29.251Z,9.69
2019-05-12T08:47:34.385Z,9.92
2019-05-12T08:48:29.167Z,9.95
2019-05-12T08:49:34.116Z,9.95
2019-05-12T08:50:31.525Z,9.97
2019-05-12T08:51:29.052Z,9.95
2019-05-12T08:52:30.684Z,9.95
2019-05-12T08:53:28.968Z,9.94
2019-05-12T08:54:28.932Z,9.98
2019-05-12T08:55:31.271Z,10.07
2019-05-12T08:56:28.856Z,10.22
2019-05-12T08:57:34.819Z,10.22
2019-05-12T08:58:33.456Z,10.34
2019-05-12T08:59:28.840Z,10.26
2019-05-12T09:00:28.693Z,10.51
2019-05-12T09:01:30.731Z,10.78
2019-05-12T09:02:28.612Z,11.02
2019-05-12T09:03:30.561Z,11.02
2019-05-12T09:04:28.536Z,10.97
2019-05-12T09:05:34.528Z,10.90
2019-05-12T09:06:28.457Z,10.87
2019-05-12T09:07:30.221Z,10.57
2019-05-12T09:08:28.372Z,10.53
2019-05-12T09:09:28.340Z,10.46
2019-05-12T09:10:28.297Z,10.41
2019-05-12T09:11:28.258Z,10.31
2019-05-12T09:12:28.218Z,10.41
2019-05-12T09:13:28.179Z,10.40
2019-05-12T09:14:28.138Z,10.44
2019-05-12T09:15:28.100Z,10.30
2019-05-12T09:16:28.082Z,10.38
2019-05-12T09:17:28.026Z,10.33
2019-05-12T09:18:33.515Z,10.28
2019-05-12T09:19:27.940Z,10.26
2019-05-12T09:20:27.904Z,10.31
2019-05-12T09:21:31.625Z,10.34
2019-05-12T09:22:27.822Z,10.35
2019-05-12T09:23:32.742Z,10.30
2019-05-12T09:24:27.748Z,10.41
2019-05-12T09:25:27.701Z,10.49
2019-05-12T09:26:28.496Z,10.49
2019-05-12T09:27:27.628Z,10.60
2019-05-12T09:28:27.614Z,10.64
2019-05-12T09:29:27.550Z,10.54
2019-05-12T09:30:27.510Z,10.56
2019-05-12T09:31:29.530Z,10.54
2019-05-12T09:32:27.425Z,10.51
2019-05-12T09:33:31.662Z,10.41
2019-05-12T09:34:27.414Z,10.51
2019-05-12T09:35:28.594Z,10.37
2019-05-12T09:36:27.276Z,10.30
2019-05-12T09:37:31.035Z,10.35
2019-05-12T09:50:46.178Z,10.82
2019-05-12T09:53:50.768Z,10.96
2019-05-12T09:54:47.734Z,11.12
2019-05-12T09:55:47.385Z,10.90
2019-05-12T09:56:49.940Z,10.96
2019-05-12T09:57:47.308Z,10.84
2019-05-12T09:58:58.238Z,10.90
2019-05-12T09:59:57.268Z,10.76
2019-05-12T10:00:47.174Z,10.75
2019-05-12T10:01:47.135Z,10.67
2019-05-12T10:02:51.063Z,10.63
2019-05-12T10:03:47.055Z,10.68
2019-05-12T10:04:50.260Z,10.72
2019-05-12T10:05:46.974Z,10.82
2019-05-12T10:06:46.933Z,10.92
2019-05-12T10:07:46.895Z,11.07
2019-05-12T10:08:46.854Z,11.02
2019-05-12T10:09:49.181Z,10.99
2019-05-12T10:10:47.176Z,11.15
2019-05-12T10:11:53.836Z,11.04
2019-05-12T10:12:50.541Z,11.08
2019-05-12T10:13:46.653Z,11.10
2019-05-12T10:14:47.250Z,11.17
2019-05-12T10:15:46.575Z,11.43
2019-05-12T10:16:49.695Z,11.57
2019-05-12T10:17:46.495Z,11.48
2019-05-12T10:18:51.209Z,11.51
2019-05-12T10:19:48.348Z,11.48
2019-05-12T10:20:46.377Z,11.60
2019-05-12T10:21:49.051Z,11.65
2019-05-12T10:22:46.304Z,11.59
2019-05-12T10:23:46.255Z,11.57
2019-05-12T10:24:55.272Z,11.55
2019-05-12T10:25:46.180Z,11.52
2019-05-12T10:26:49.364Z,11.54
2019-05-12T10:27:46.109Z,11.50
2019-05-12T10:28:52.037Z,11.68
2019-05-12T10:29:46.024Z,11.66
2019-05-12T10:30:47.261Z,11.88
2019-05-12T10:31:45.950Z,11.91
2019-05-12T10:32:45.908Z,12.00
2019-05-12T10:33:49.023Z,12.02
2019-05-12T10:34:45.824Z,12.00
2019-05-12T10:35:45.791Z,12.09
2019-05-12T10:36:48.944Z,12.24
2019-05-12T10:37:47.278Z,12.18
2019-05-12T10:38:45.670Z,12.03
2019-05-12T10:39:45.637Z,12.21
2019-05-12T10:40:48.218Z,12.07
2019-05-12T10:41:45.557Z,12.17
2019-05-12T10:42:49.331Z,12.21
2019-05-12T10:43:48.400Z,12.09
2019-05-12T10:44:45.439Z,12.09
2019-05-12T10:45:45.401Z,11.97
2019-05-12T10:46:45.362Z,12.02
2019-05-12T10:47:45.328Z,11.99
2019-05-12T10:48:45.286Z,11.86
2019-05-12T10:49:45.248Z,11.54
2019-05-12T10:50:45.210Z,11.55
2019-05-12T10:51:47.456Z,11.63
2019-05-12T10:52:45.133Z,11.57
2019-05-12T10:53:48.727Z,11.69
2019-05-12T10:54:45.056Z,11.80
2019-05-12T10:55:45.013Z,12.07
2019-05-12T10:56:44.975Z,12.06
2019-05-12T10:57:47.262Z,12.09
2019-05-12T10:58:44.896Z,12.06
2019-05-12T10:59:48.486Z,12.02
2019-05-12T11:00:44.822Z,11.95
2019-05-12T11:01:48.844Z,11.87
2019-05-12T11:02:44.759Z,11.83
2019-05-12T11:03:50.833Z,11.88
2019-05-12T11:04:44.666Z,11.95
2019-05-12T11:05:44.629Z,11.97
2019-05-12T11:06:48.364Z,11.99
2019-05-12T11:07:44.558Z,12.09
2019-05-12T11:08:47.301Z,12.17
2019-05-12T11:09:44.474Z,12.28
2019-05-12T11:10:44.450Z,12.39
2019-05-12T11:11:46.937Z,12.32
2019-05-12T11:12:44.359Z,12.15
2019-05-12T11:13:46.216Z,11.99
2019-05-12T11:14:44.281Z,11.99
2019-05-12T11:15:46.112Z,11.99
2019-05-12T11:16:44.630Z,11.87
2019-05-12T11:17:45.974Z,12.02
2019-05-12T11:18:44.127Z,11.88
2019-05-12T11:19:47.070Z,12.03
2019-05-12T11:20:45.063Z,12.12
2019-05-12T11:21:44.324Z,12.18
2019-05-12T11:22:43.984Z,12.15
2019-05-12T11:23:43.935Z,12.35
2019-05-12T11:24:44.452Z,12.43
2019-05-12T11:25:44.054Z,12.49
2019-05-12T11:26:43.822Z,12.53
2019-05-12T11:27:43.837Z,12.61
2019-05-12T11:28:43.743Z,12.60
2019-05-12T11:29:49.171Z,12.75
2019-05-12T11:30:43.828Z,12.87
2019-05-12T11:31:44.102Z,12.72
2019-05-12T11:32:44.165Z,12.36
2019-05-12T11:33:43.659Z,12.40
2019-05-12T11:34:44.321Z,12.45
2019-05-12T11:35:43.629Z,12.32
2019-05-12T11:36:43.756Z,12.39
2019-05-12T11:37:43.419Z,12.32
2019-05-12T11:38:44.346Z,12.50
2019-05-12T11:39:45.228Z,12.72
2019-05-12T11:40:43.775Z,12.70
2019-05-12T11:41:44.250Z,12.70
2019-05-12T11:42:46.839Z,12.79
2019-05-12T11:43:43.173Z,12.79
2019-05-12T11:44:44.322Z,12.93
2019-05-12T11:45:44.210Z,13.13
2019-05-12T11:46:44.101Z,13.12
2019-05-12T11:47:44.656Z,13.47
2019-05-12T11:48:46.404Z,13.74
2019-05-12T11:49:44.172Z,13.63
2019-05-12T11:50:49.466Z,13.44
2019-05-12T11:51:42.869Z,13.25
2019-05-12T11:52:46.011Z,13.11
2019-05-12T11:53:44.503Z,12.72
2019-05-12T11:54:47.249Z,12.61
2019-05-12T11:55:43.817Z,12.50
2019-05-12T11:56:46.637Z,12.62
2019-05-12T11:57:43.781Z,12.70
2019-05-12T11:58:47.370Z,12.93
2019-05-12T11:59:43.475Z,12.91
2019-05-12T12:00:44.091Z,12.85
2019-05-12T12:01:47.449Z,12.68
2019-05-12T12:02:43.745Z,12.78
2019-05-12T12:03:44.054Z,12.91
2019-05-12T12:04:43.516Z,12.98
2019-05-12T12:05:44.169Z,12.98
2019-05-12T12:06:43.875Z,13.16
2019-05-12T12:07:50.552Z,13.18
2019-05-12T12:08:44.030Z,13.18
2019-05-12T12:09:43.816Z,13.28
2019-05-12T12:10:42.139Z,13.31
2019-05-12T12:11:43.343Z,13.23
2019-05-12T12:12:45.243Z,13.33
2019-05-12T12:13:42.030Z,13.49
2019-05-12T12:14:48.423Z,13.50
2019-05-12T12:15:41.957Z,13.49
2019-05-12T12:16:49.799Z,13.27
2019-05-12T12:17:44.025Z,13.00
2019-05-12T12:18:48.624Z,13.05
2019-05-12T12:19:46.698Z,12.98
2019-05-12T12:20:44.102Z,13.11
2019-05-12T12:21:46.125Z,12.98
2019-05-12T12:22:43.443Z,13.12
2019-05-12T12:23:47.302Z,13.16
2019-05-12T12:24:43.519Z,12.95
2019-05-12T12:25:42.959Z,12.98
2019-05-12T12:26:41.541Z,12.93
2019-05-12T12:27:41.496Z,12.97
2019-05-12T12:28:43.419Z,13.12
2019-05-12T12:29:43.720Z,13.15
2019-05-12T12:30:41.388Z,13.15
2019-05-12T12:31:43.334Z,13.01
2019-05-12T12:32:41.310Z,13.31
2019-05-12T12:33:46.481Z,13.39
2019-05-12T12:34:41.231Z,13.62
2019-05-12T12:35:41.200Z,13.59
2019-05-12T12:36:43.477Z,13.67
2019-05-12T12:37:41.125Z,13.68
2019-05-12T12:38:41.085Z,13.68
2019-05-12T12:39:43.328Z,13.53
2019-05-12T12:40:41.007Z,13.38
2019-05-12T12:41:45.706Z,13.22
2019-05-12T12:42:46.260Z,13.16
2019-05-12T12:43:43.169Z,13.11
2019-05-12T12:44:40.858Z,12.94
2019-05-12T12:45:41.406Z,12.90
2019-05-12T12:46:40.777Z,13.03
2019-05-12T12:47:44.404Z,13.12
2019-05-12T12:48:40.708Z,13.19
2019-05-12T12:49:45.271Z,13.33
2019-05-12T12:50:40.633Z,13.39
2019-05-12T12:51:40.589Z,13.65
2019-05-12T12:52:44.839Z,13.71
2019-05-12T12:53:40.515Z,13.68
2019-05-12T12:54:40.482Z,13.62
2019-05-12T12:55:43.382Z,13.81
2019-05-12T12:56:40.404Z,13.81
2019-05-12T12:57:45.117Z,13.81
2019-05-12T12:58:40.333Z,13.93
2019-05-12T12:59:45.475Z,14.23
2019-05-12T13:00:47.173Z,14.03
2019-05-12T13:01:40.216Z,14.05
2019-05-12T13:02:45.145Z,14.15
2019-05-12T13:03:40.138Z,14.12
2019-05-12T13:04:46.038Z,14.07
2019-05-12T13:05:40.065Z,14.17
2019-05-12T13:06:40.027Z,14.35
2019-05-12T13:07:39.994Z,14.26
2019-05-12T13:08:39.954Z,14.11
2019-05-12T13:09:39.916Z,14.10
2019-05-12T13:10:40.667Z,13.93
2019-05-12T13:11:39.841Z,13.71
2019-05-12T13:12:39.803Z,13.57
2019-05-12T13:13:39.766Z,13.56
2019-05-12T13:14:39.726Z,13.53
2019-05-12T13:15:39.694Z,13.42
2019-05-12T13:16:39.655Z,13.53
2019-05-12T13:17:41.785Z,13.53
2019-05-12T13:18:39.579Z,13.62
2019-05-12T13:19:39.543Z,13.72
2019-05-12T13:20:39.504Z,13.83
2019-05-12T13:21:39.470Z,14.00
2019-05-12T13:22:39.437Z,13.93
2019-05-12T13:23:41.117Z,13.92
2019-05-12T13:24:39.358Z,13.93
2019-05-12T13:25:47.724Z,14.11
2019-05-12T13:26:39.284Z,14.30
2019-05-12T13:27:39.248Z,14.35
2019-05-12T13:28:39.210Z,14.47
2019-05-12T13:29:39.827Z,14.51
2019-05-12T13:30:46.278Z,14.48
2019-05-12T13:31:40.983Z,14.29
2019-05-12T13:32:39.054Z,14.26
2019-05-12T13:33:39.025Z,14.14
2019-05-12T13:34:38.990Z,14.12
2019-05-12T13:35:38.944Z,13.81
2019-05-12T13:36:39.399Z,13.67
2019-05-12T13:37:38.868Z,13.53
2019-05-12T13:38:40.514Z,13.50
2019-05-12T13:39:38.801Z,13.37
2019-05-12T13:40:39.443Z,13.38
2019-05-12T13:41:38.724Z,13.52
2019-05-12T13:42:38.684Z,13.56